createdAt,value
2023-01-18T00:01:22.482Z,95391.93
2023-01-18T00:03:50.789Z,95386.90
2023-01-18T00:06:18.992Z,95374.93
2023-01-18T00:08:47.115Z,95369.23
2023-01-18T00:11:17.278Z,95380.14
2023-01-18T00:13:46.019Z,95384.30
2023-01-18T00:16:20.437Z,95395.41
2023-01-18T00:18:54.314Z,95399.02
2023-01-18T00:21:24.374Z,95406.54
2023-01-18T00:23:53.192Z,95411.02
2023-01-18T00:26:21.546Z,95415.84
2023-01-18T00:28:50.074Z,95417.14
2023-01-18T00:31:21.295Z,95418.68
2023-01-18T00:33:50.987Z,95418.87
2023-01-18T00:36:20.038Z,95426.29
2023-01-18T00:38:52.190Z,95433.23
2023-01-18T00:41:21.977Z,95426.38
2023-01-18T00:43:51.968Z,95417.34
2023-01-18T00:46:25.940Z,95415.00
2023-01-18T00:48:55.361Z,95404.17
2023-01-18T00:51:25.518Z,95399.62
2023-01-18T00:53:54.000Z,95389.64
2023-01-18T00:56:23.309Z,95378.43
2023-01-18T00:58:52.137Z,95373.67
2023-01-18T01:01:21.654Z,95373.20
2023-01-18T01:04:09.277Z,95375.55
2023-01-18T01:06:47.189Z,95378.45
2023-01-18T01:09:23.004Z,95376.30
2023-01-18T01:12:11.265Z,95369.01
2023-01-18T01:15:01.984Z,95369.09
2023-01-18T01:17:51.529Z,95378.15
2023-01-18T01:20:39.420Z,95384.18
2023-01-18T01:23:34.935Z,95394.85
2023-01-18T01:26:13.974Z,95394.30
2023-01-18T01:28:45.048Z,95390.53
2023-01-18T01:31:15.607Z,95395.48
2023-01-18T01:33:50.792Z,95402.41
2023-01-18T01:36:21.388Z,95403.20
2023-01-18T01:38:49.834Z,95397.48
2023-01-18T01:41:25.727Z,95400.79
2023-01-18T01:43:58.203Z,95397.89
2023-01-18T01:46:39.822Z,95389.60
2023-01-18T01:49:19.487Z,95388.55
2023-01-18T01:51:56.879Z,95382.74
2023-01-18T01:54:32.350Z,95383.55
2023-01-18T01:57:26.445Z,95389.81
2023-01-18T02:00:12.210Z,95390.70
2023-01-18T02:02:42.567Z,95390.48
2023-01-18T02:05:13.778Z,95384.31
2023-01-18T02:07:42.215Z,95388.89
2023-01-18T02:10:12.069Z,95390.49
2023-01-18T02:12:42.790Z,95391.20
2023-01-18T02:15:11.722Z,95388.20
2023-01-18T02:18:01.401Z,95387.02
2023-01-18T02:20:44.599Z,95385.95
2023-01-18T02:23:31.436Z,95385.00
2023-01-18T02:26:21.314Z,95384.09
2023-01-18T02:29:07.161Z,95386.20
2023-01-18T02:32:05.269Z,95391.45
2023-01-18T02:34:49.081Z,95394.14
2023-01-18T02:37:28.322Z,95388.89
2023-01-18T02:40:12.007Z,95378.80
2023-01-18T02:43:02.306Z,95376.98
2023-01-18T02:45:49.308Z,95375.06
2023-01-18T02:48:21.472Z,95365.66
2023-01-18T02:50:51.824Z,95363.28
2023-01-18T02:53:20.454Z,95359.10
2023-01-18T02:55:56.578Z,95354.13
2023-01-18T02:58:34.653Z,95358.30
2023-01-18T03:01:12.427Z,95355.54
2023-01-18T03:03:44.519Z,95349.85
2023-01-18T03:06:13.236Z,95339.78
2023-01-18T03:08:54.552Z,95339.00
2023-01-18T03:11:34.502Z,95346.33
2023-01-18T03:14:27.977Z,95351.88
2023-01-18T03:17:17.833Z,95353.23
2023-01-18T03:20:09.663Z,95349.74
2023-01-18T03:23:10.913Z,95361.81
2023-01-18T03:25:42.809Z,95365.65
2023-01-18T03:28:36.327Z,95365.41
2023-01-18T03:31:28.581Z,95358.20
2023-01-18T03:34:30.034Z,95353.08
2023-01-18T03:37:03.146Z,95352.30
2023-01-18T03:39:39.853Z,95358.70
2023-01-18T03:42:30.951Z,95366.02
2023-01-18T03:45:05.569Z,95372.98
2023-01-18T03:47:34.710Z,95376.48
2023-01-18T03:50:03.124Z,95377.84
2023-01-18T03:52:43.631Z,95377.70
2023-01-18T03:55:20.796Z,95375.37
2023-01-18T03:57:56.384Z,95370.73
2023-01-18T04:00:25.968Z,95368.38
2023-01-18T04:02:54.255Z,95365.91
2023-01-18T04:05:22.927Z,95356.22
2023-01-18T04:07:51.284Z,95356.80
2023-01-18T04:10:19.873Z,95354.48
2023-01-18T04:12:48.420Z,95361.36
2023-01-18T04:15:16.610Z,95373.07
2023-01-18T04:17:44.723Z,95373.44
2023-01-18T04:20:13.191Z,95376.15
2023-01-18T04:22:41.739Z,95381.07
2023-01-18T04:25:10.745Z,95380.98
2023-01-18T04:27:39.012Z,95382.63
2023-01-18T04:30:08.099Z,95379.03
2023-01-18T04:32:36.425Z,95375.83
2023-01-18T04:35:05.081Z,95371.72
2023-01-18T04:37:34.315Z,95370.69
2023-01-18T04:40:02.508Z,95366.36
2023-01-18T04:42:31.039Z,95377.27
2023-01-18T04:45:00.230Z,95372.13
2023-01-18T04:47:29.343Z,95367.01
2023-01-18T04:50:00.357Z,95371.63
2023-01-18T04:52:32.397Z,95373.43
2023-01-18T04:55:00.594Z,95375.96
2023-01-18T04:57:29.078Z,95374.42
2023-01-18T04:59:57.166Z,95378.11
2023-01-18T05:02:25.558Z,95375.33
2023-01-18T05:04:54.043Z,95376.56
2023-01-18T05:07:25.316Z,95382.92
2023-01-18T05:09:54.001Z,95392.30
2023-01-18T05:12:22.323Z,95398.02
2023-01-18T05:14:50.490Z,95393.80
2023-01-18T05:17:18.730Z,95385.34
2023-01-18T05:19:48.678Z,95374.65
2023-01-18T05:22:19.384Z,95381.09
2023-01-18T05:24:48.131Z,95378.00
2023-01-18T05:27:17.313Z,95372.89
2023-01-18T05:29:48.423Z,95360.88
2023-01-18T05:32:17.149Z,95360.02
2023-01-18T05:34:45.647Z,95366.27
2023-01-18T05:37:14.266Z,95357.31
2023-01-18T05:39:42.512Z,95359.83
2023-01-18T05:42:10.903Z,95367.75
2023-01-18T05:44:39.485Z,95372.91
2023-01-18T05:47:07.970Z,95373.95
2023-01-18T05:49:36.436Z,95372.77
2023-01-18T05:52:05.032Z,95371.48
2023-01-18T05:54:33.321Z,95372.09
2023-01-18T05:57:01.551Z,95365.83
2023-01-18T05:59:30.294Z,95370.14
2023-01-18T06:01:59.023Z,95365.21
2023-01-18T06:04:27.583Z,95365.98
2023-01-18T06:06:56.383Z,95360.05
2023-01-18T06:09:25.109Z,95368.98
2023-01-18T06:11:53.531Z,95388.88
2023-01-18T06:14:22.138Z,95381.65
2023-01-18T06:16:51.116Z,95399.77
2023-01-18T06:19:19.512Z,95397.11
2023-01-18T06:21:47.893Z,95400.65
2023-01-18T06:24:16.467Z,95398.75
2023-01-18T06:26:45.230Z,95404.33
2023-01-18T06:29:13.728Z,95406.16
2023-01-18T06:31:42.350Z,95409.40
2023-01-18T06:34:10.997Z,95414.56
2023-01-18T06:36:41.044Z,95413.80
2023-01-18T06:39:10.364Z,95412.76
2023-01-18T06:41:39.912Z,95411.58
2023-01-18T06:44:08.678Z,95411.61
2023-01-18T06:46:38.017Z,95420.20
2023-01-18T06:49:07.202Z,95420.99
2023-01-18T06:51:35.897Z,95422.11
2023-01-18T06:54:04.626Z,95423.15
2023-01-18T06:56:33.644Z,95430.16
2023-01-18T06:59:02.709Z,95435.70
2023-01-18T07:01:31.934Z,95438.85
2023-01-18T07:04:01.048Z,95439.11
2023-01-18T07:06:30.649Z,95439.61
2023-01-18T07:08:59.634Z,95441.38
2023-01-18T07:11:29.419Z,95434.44
2023-01-18T07:13:58.459Z,95435.89
2023-01-18T07:16:28.975Z,95440.93
2023-01-18T07:19:00.861Z,95439.07
2023-01-18T07:21:30.950Z,95439.45
2023-01-18T07:23:59.978Z,95438.05
2023-01-18T07:26:28.312Z,95440.43
2023-01-18T07:28:56.799Z,95445.38
2023-01-18T07:31:25.412Z,95459.39
2023-01-18T07:33:54.416Z,95470.48
2023-01-18T07:36:23.604Z,95479.31
2023-01-18T07:38:53.066Z,95490.46
2023-01-18T07:41:23.413Z,95505.44
2023-01-18T07:43:54.121Z,95504.43
2023-01-18T07:46:23.827Z,95497.83
2023-01-18T07:48:53.296Z,95482.41
2023-01-18T07:51:22.823Z,95437.70
2023-01-18T07:53:55.437Z,95412.64
2023-01-18T07:56:26.011Z,95397.61
2023-01-18T07:58:54.722Z,95391.73
2023-01-18T08:01:24.186Z,95408.98
2023-01-18T08:03:54.926Z,95428.95
2023-01-18T08:06:26.526Z,95443.06
2023-01-18T08:08:56.560Z,95455.08
2023-01-18T08:11:25.274Z,95454.68
2023-01-18T08:13:54.008Z,95460.30
2023-01-18T08:16:26.133Z,95456.59
2023-01-18T08:18:55.715Z,95440.66
2023-01-18T08:21:26.931Z,95438.84
2023-01-18T08:23:56.248Z,95468.03
2023-01-18T08:26:25.178Z,95484.45
2023-01-18T08:28:54.223Z,95483.73
2023-01-18T08:31:24.619Z,95485.70
2023-01-18T08:33:54.381Z,95498.77
2023-01-18T08:36:25.792Z,95513.48
2023-01-18T08:38:59.595Z,95524.83
2023-01-18T08:41:32.985Z,95532.67
2023-01-18T08:44:02.239Z,95521.59
2023-01-18T08:46:31.201Z,95510.09
2023-01-18T08:48:59.829Z,95509.18
2023-01-18T08:51:28.425Z,95511.20
2023-01-18T08:53:57.593Z,95517.14
2023-01-18T08:56:27.026Z,95516.71
2023-01-18T08:58:55.712Z,95518.20
2023-01-18T09:01:25.074Z,95520.36
2023-01-18T09:03:55.964Z,95520.69
2023-01-18T09:06:25.634Z,95509.52
2023-01-18T09:08:54.401Z,95498.05
2023-01-18T09:11:23.583Z,95495.40
2023-01-18T09:14:01.076Z,95499.59
2023-01-18T09:16:32.086Z,95512.02
2023-01-18T09:19:01.701Z,95512.58
2023-01-18T09:21:30.925Z,95503.20
2023-01-18T09:24:00.190Z,95491.94
2023-01-18T09:26:30.991Z,95499.27
2023-01-18T09:28:59.953Z,95505.07
2023-01-18T09:31:29.886Z,95500.51
2023-01-18T09:34:17.428Z,95495.01
2023-01-18T09:36:51.517Z,95487.07
2023-01-18T09:39:22.223Z,95480.15
2023-01-18T09:42:05.107Z,95481.80
2023-01-18T09:44:40.157Z,95485.38
2023-01-18T09:47:26.867Z,95487.05
2023-01-18T09:50:02.944Z,95489.58
2023-01-18T09:52:34.576Z,95494.69
2023-01-18T09:55:13.258Z,95492.39
2023-01-18T09:57:47.020Z,95498.10
2023-01-18T10:00:25.091Z,95503.33
2023-01-18T10:03:19.885Z,95497.19
2023-01-18T10:06:16.074Z,95487.71
2023-01-18T10:08:54.243Z,95484.89
2023-01-18T10:11:32.588Z,95473.64
2023-01-18T10:14:18.068Z,95461.92
2023-01-18T10:16:57.780Z,95460.45
2023-01-18T10:19:32.362Z,95460.89
2023-01-18T10:22:12.511Z,95461.89
2023-01-18T10:25:02.356Z,95450.45
2023-01-18T10:27:39.348Z,95442.48
2023-01-18T10:30:29.100Z,95458.68
2023-01-18T10:33:03.884Z,95480.34
2023-01-18T10:35:41.088Z,95503.05
2023-01-18T10:38:15.806Z,95514.48
2023-01-18T10:40:55.242Z,95535.69
2023-01-18T10:43:26.046Z,95544.71
2023-01-18T10:45:54.955Z,95554.94
2023-01-18T10:48:28.285Z,95552.90
2023-01-18T10:51:03.167Z,95559.45
2023-01-18T10:53:36.679Z,95566.95
2023-01-18T10:56:17.331Z,95569.55
2023-01-18T10:58:55.081Z,95573.27
2023-01-18T11:01:33.783Z,95581.79
2023-01-18T11:04:22.188Z,95598.64
2023-01-18T11:06:55.101Z,95622.05
2023-01-18T11:09:55.016Z,95647.03
2023-01-18T11:12:48.069Z,95648.56
2023-01-18T11:15:16.342Z,95657.21
2023-01-18T11:17:50.728Z,95672.98
2023-01-18T11:20:25.879Z,95675.59
2023-01-18T11:22:59.123Z,95679.47
2023-01-18T11:25:38.245Z,95689.56
2023-01-18T11:28:29.147Z,95689.63
2023-01-18T11:31:00.489Z,95688.31
2023-01-18T11:33:31.764Z,95699.70
2023-01-18T11:36:02.585Z,95698.72
2023-01-18T11:38:33.999Z,95695.45
2023-01-18T11:41:06.125Z,95689.03
2023-01-18T11:43:38.288Z,95690.91
2023-01-18T11:46:26.308Z,95689.78
2023-01-18T11:49:18.052Z,95697.06
2023-01-18T11:52:03.293Z,95708.40
2023-01-18T11:54:50.935Z,95713.65
2023-01-18T11:57:20.174Z,95713.79
2023-01-18T11:59:49.274Z,95720.16
2023-01-18T12:03:14.291Z,95725.83
2023-01-18T12:05:55.407Z,95734.02
2023-01-18T12:08:27.328Z,95740.81
2023-01-18T12:11:29.473Z,95753.98
2023-01-18T12:14:06.265Z,95745.70
2023-01-18T12:16:56.167Z,95753.56
2023-01-18T12:19:45.287Z,95756.29
2023-01-18T12:22:26.088Z,95762.20
2023-01-18T12:25:22.615Z,95758.49
2023-01-18T12:28:33.712Z,95759.89
2023-01-18T12:31:11.642Z,95779.33
2023-01-18T12:33:52.758Z,95783.45
2023-01-18T12:36:52.024Z,95809.10
2023-01-18T12:39:39.270Z,95813.81
2023-01-18T12:42:22.945Z,95815.73
2023-01-18T12:45:16.275Z,95821.85
2023-01-18T12:48:07.945Z,95832.65
2023-01-18T12:50:39.597Z,95827.23
2023-01-18T12:53:23.644Z,95849.68
2023-01-18T12:55:55.780Z,95857.69
2023-01-18T12:58:27.426Z,95863.21
2023-01-18T13:01:02.960Z,95858.09
2023-01-18T13:03:43.580Z,95859.74
2023-01-18T13:06:15.893Z,95856.58
2023-01-18T13:08:55.926Z,95859.90
2023-01-18T13:11:27.829Z,95879.18
2023-01-18T13:14:09.833Z,95888.76
2023-01-18T13:16:47.111Z,95891.90
2023-01-18T13:19:32.436Z,95898.47
2023-01-18T13:22:04.197Z,95903.20
2023-01-18T13:24:32.822Z,95907.11
2023-01-18T13:27:15.872Z,95918.63
2023-01-18T13:29:45.615Z,95933.58
2023-01-18T13:32:25.256Z,95935.79
2023-01-18T13:35:18.994Z,95927.41
2023-01-18T13:37:54.940Z,95926.36
2023-01-18T13:40:24.991Z,95931.38
2023-01-18T13:42:53.370Z,95944.03
2023-01-18T13:45:28.749Z,95960.08
2023-01-18T13:48:00.160Z,95980.46
2023-01-18T13:50:28.843Z,95990.45
2023-01-18T13:53:24.712Z,95975.48
2023-01-18T13:56:21.995Z,95967.84
2023-01-18T13:58:56.862Z,95977.66
2023-01-18T14:01:32.952Z,95994.30
2023-01-18T14:04:29.268Z,95998.88
2023-01-18T14:07:02.725Z,95999.80
2023-01-18T14:09:45.883Z,95996.83
2023-01-18T14:12:15.187Z,95999.40
2023-01-18T14:15:02.935Z,96007.26
2023-01-18T14:17:34.742Z,96021.34
2023-01-18T14:20:23.487Z,96024.30
2023-01-18T14:23:18.902Z,96029.98
2023-01-18T14:26:11.696Z,96035.19
2023-01-18T14:28:59.724Z,96036.13
2023-01-18T14:31:33.426Z,96026.50
2023-01-18T14:34:26.078Z,96019.48
2023-01-18T14:36:56.771Z,96014.08
2023-01-18T14:39:26.162Z,96015.90
2023-01-18T14:42:00.216Z,96010.27
2023-01-18T14:44:56.345Z,96009.20
2023-01-18T14:47:30.871Z,96016.13
2023-01-18T14:50:03.792Z,96023.34
2023-01-18T14:52:34.932Z,96024.09
2023-01-18T14:55:03.833Z,96032.52
2023-01-18T14:57:32.203Z,96030.66
2023-01-18T15:00:16.462Z,96027.54
2023-01-18T15:02:46.417Z,96025.16
2023-01-18T15:05:20.238Z,96032.10
2023-01-18T15:07:55.534Z,96043.20
2023-01-18T15:10:24.943Z,96048.05
2023-01-18T15:12:58.741Z,96059.01
2023-01-18T15:15:32.995Z,96070.09
2023-01-18T15:18:10.848Z,96077.55
2023-01-18T15:20:52.462Z,96082.65
2023-01-18T15:23:24.032Z,96088.77
2023-01-18T15:25:54.627Z,96094.95
2023-01-18T15:28:29.161Z,96102.84
2023-01-18T15:30:57.863Z,96107.93
2023-01-18T15:33:28.010Z,96107.91
2023-01-18T15:36:01.372Z,96110.06
2023-01-18T15:38:30.279Z,96116.96
2023-01-18T15:41:04.238Z,96122.14
2023-01-18T15:43:42.151Z,96131.61
2023-01-18T15:46:16.906Z,96141.97
2023-01-18T15:48:52.384Z,96150.57
2023-01-18T15:51:23.035Z,96152.55
2023-01-18T15:53:56.560Z,96157.25
2023-01-18T15:56:33.559Z,96159.77
2023-01-18T15:59:10.104Z,96162.84
2023-01-18T16:01:38.781Z,96160.42
2023-01-18T16:04:12.025Z,96154.10
2023-01-18T16:06:41.218Z,96159.56
2023-01-18T16:09:12.047Z,96177.25
2023-01-18T16:11:41.451Z,96183.70
2023-01-18T16:14:46.621Z,96181.86
2023-01-18T16:17:19.873Z,96194.84
2023-01-18T16:19:53.509Z,96193.34
2023-01-18T16:22:29.136Z,96206.94
2023-01-18T16:25:01.641Z,96216.50
2023-01-18T16:27:32.475Z,96217.90
2023-01-18T16:30:18.332Z,96224.83
2023-01-18T16:32:47.455Z,96227.70
2023-01-18T16:35:18.968Z,96230.14
2023-01-18T16:37:48.441Z,96240.91
2023-01-18T16:40:22.321Z,96248.48
2023-01-18T16:42:59.912Z,96250.23
2023-01-18T16:45:31.729Z,96245.96
2023-01-18T16:48:00.871Z,96248.34
2023-01-18T16:50:30.502Z,96245.74
2023-01-18T16:52:59.512Z,96241.04
2023-01-18T16:55:28.688Z,96234.23
2023-01-18T16:57:57.612Z,96233.38
2023-01-18T17:00:34.256Z,96234.05
2023-01-18T17:03:03.467Z,96241.53
2023-01-18T17:05:31.977Z,96239.95
2023-01-18T17:08:02.368Z,96247.13
2023-01-18T17:10:39.125Z,96255.30
2023-01-18T17:13:07.673Z,96261.52
2023-01-18T17:15:41.361Z,96270.49
2023-01-18T17:18:26.070Z,96272.38
2023-01-18T17:20:56.098Z,96269.53
2023-01-18T17:23:25.924Z,96273.05
2023-01-18T17:25:54.391Z,96278.89
2023-01-18T17:28:23.270Z,96283.40
2023-01-18T17:30:52.532Z,96283.74
2023-01-18T17:33:24.051Z,96283.94
2023-01-18T17:35:54.686Z,96290.36
2023-01-18T17:38:29.597Z,96296.79
2023-01-18T17:40:59.009Z,96300.29
2023-01-18T17:43:33.884Z,96294.73
2023-01-18T17:46:05.031Z,96292.48
2023-01-18T17:48:34.429Z,96300.51
2023-01-18T17:51:07.728Z,96301.77
2023-01-18T17:53:38.904Z,96295.95
2023-01-18T17:56:12.795Z,96293.85
2023-01-18T17:58:41.874Z,96295.05
2023-01-18T18:01:12.570Z,96295.95
2023-01-18T18:03:45.616Z,96291.00
2023-01-18T18:06:26.086Z,96283.66
2023-01-18T18:08:59.667Z,96273.05
2023-01-18T18:11:28.776Z,96262.44
2023-01-18T18:13:59.921Z,96269.97
2023-01-18T18:16:30.516Z,96274.54
2023-01-18T18:19:00.134Z,96273.33
2023-01-18T18:21:29.317Z,96280.38
2023-01-18T18:23:58.942Z,96292.66
2023-01-18T18:26:27.704Z,96302.25
2023-01-18T18:28:55.967Z,96301.17
2023-01-18T18:31:24.414Z,96313.48
2023-01-18T18:33:52.870Z,96322.18
2023-01-18T18:36:22.299Z,96334.32
2023-01-18T18:38:50.462Z,96331.89
2023-01-18T18:41:19.005Z,96325.97
2023-01-18T18:43:47.551Z,96315.64
2023-01-18T18:46:16.378Z,96315.63
2023-01-18T18:48:45.261Z,96319.27
2023-01-18T18:51:14.236Z,96322.02
2023-01-18T18:53:42.384Z,96322.31
2023-01-18T18:56:10.709Z,96326.90
2023-01-18T18:58:40.089Z,96327.53
2023-01-18T19:01:24.398Z,96333.98
2023-01-18T19:03:53.846Z,96337.80
2023-01-18T19:06:24.231Z,96330.70
2023-01-18T19:08:53.622Z,96321.42
2023-01-18T19:11:21.857Z,96313.27
2023-01-18T19:13:50.502Z,96308.84
2023-01-18T19:16:18.951Z,96307.69
2023-01-18T19:18:47.668Z,96298.55
2023-01-18T19:21:16.162Z,96288.28
2023-01-18T19:23:45.036Z,96294.48
2023-01-18T19:26:13.957Z,96299.78
2023-01-18T19:28:42.336Z,96298.82
2023-01-18T19:31:12.302Z,96307.34
2023-01-18T19:33:40.618Z,96314.16
2023-01-18T19:36:15.261Z,96306.20
2023-01-18T19:38:47.283Z,96303.96
2023-01-18T19:41:18.935Z,96301.39
2023-01-18T19:43:50.626Z,96298.34
2023-01-18T19:46:20.465Z,96298.09
2023-01-18T19:48:48.878Z,96299.11
2023-01-18T19:51:22.436Z,96295.68
2023-01-18T19:53:55.989Z,96302.38
2023-01-18T19:56:29.229Z,96306.31
2023-01-18T19:58:59.115Z,96309.87
2023-01-18T20:01:36.280Z,96314.80
2023-01-18T20:04:13.637Z,96324.74
2023-01-18T20:06:45.545Z,96327.49
2023-01-18T20:09:19.780Z,96331.09
2023-01-18T20:11:50.917Z,96334.02
2023-01-18T20:14:19.879Z,96328.41
2023-01-18T20:16:49.834Z,96308.00
2023-01-18T20:19:20.339Z,96290.94
2023-01-18T20:21:50.256Z,96295.08
2023-01-18T20:24:18.877Z,96295.13
2023-01-18T20:26:48.303Z,96295.57
2023-01-18T20:29:17.950Z,96294.34
2023-01-18T20:31:50.024Z,96307.36
2023-01-18T20:34:21.664Z,96313.41
2023-01-18T20:36:50.392Z,96316.46
2023-01-18T20:39:19.280Z,96324.13
2023-01-18T20:41:50.172Z,96330.77
2023-01-18T20:44:18.685Z,96330.92
2023-01-18T20:46:51.212Z,96324.76
2023-01-18T20:49:24.531Z,96328.00
2023-01-18T20:51:55.436Z,96330.88
2023-01-18T20:54:23.623Z,96334.48
2023-01-18T20:56:51.629Z,96338.02
2023-01-18T20:59:20.310Z,96337.58
2023-01-18T21:01:48.623Z,96331.73
2023-01-18T21:04:16.618Z,96320.69
2023-01-18T21:06:44.991Z,96312.57
2023-01-18T21:09:13.184Z,96303.27
2023-01-18T21:11:41.258Z,96293.58
2023-01-18T21:14:09.405Z,96293.60
2023-01-18T21:16:37.690Z,96299.38
2023-01-18T21:19:05.730Z,96300.77
2023-01-18T21:21:33.997Z,96299.73
2023-01-18T21:24:01.983Z,96295.50
2023-01-18T21:26:30.573Z,96299.13
2023-01-18T21:28:59.308Z,96292.58
2023-01-18T21:31:27.766Z,96284.38
2023-01-18T21:33:56.153Z,96278.23
2023-01-18T21:36:24.273Z,96281.48
2023-01-18T21:38:52.500Z,96279.31
2023-01-18T21:41:39.227Z,96279.70
2023-01-18T21:44:26.388Z,96279.92
2023-01-18T21:46:54.556Z,96285.53
2023-01-18T21:52:48.986Z,96302.64
2023-01-18T21:55:18.156Z,96296.98
2023-01-18T21:58:06.202Z,96292.10
2023-01-18T22:00:37.934Z,96280.19
2023-01-18T22:03:06.862Z,96268.05
2023-01-18T22:05:35.441Z,96265.46
2023-01-18T22:08:03.792Z,96258.36
2023-01-18T22:10:32.118Z,96263.45
2023-01-18T22:13:00.366Z,96275.23
2023-01-18T22:15:28.645Z,96274.07
2023-01-18T22:17:56.976Z,96269.12
2023-01-18T22:20:25.561Z,96265.09
2023-01-18T22:22:54.667Z,96264.13
2023-01-18T22:25:23.094Z,96266.05
2023-01-18T22:27:51.411Z,96263.32
2023-01-18T22:30:19.587Z,96252.86
2023-01-18T22:32:47.975Z,96248.45
2023-01-18T22:35:16.370Z,96247.77
2023-01-18T22:37:44.625Z,96243.77
2023-01-18T22:40:12.722Z,96241.96
2023-01-18T22:42:41.087Z,96243.94
2023-01-18T22:45:09.674Z,96246.39
2023-01-18T22:47:38.155Z,96253.90
2023-01-18T22:50:07.052Z,96252.19
2023-01-18T22:52:35.314Z,96250.04
2023-01-18T22:55:04.740Z,96247.52
2023-01-18T22:57:32.972Z,96251.91
2023-01-18T23:00:01.411Z,96256.21
2023-01-18T23:02:29.650Z,96238.30
2023-01-18T23:04:57.840Z,96231.66
2023-01-18T23:07:26.296Z,96231.29
2023-01-18T23:09:54.912Z,96221.14
2023-01-18T23:12:23.987Z,96219.52
2023-01-18T23:15:10.971Z,96212.73
2023-01-18T23:17:39.191Z,96206.40
2023-01-18T23:20:15.391Z,96203.73
2023-01-18T23:22:45.704Z,96210.51
2023-01-18T23:25:14.454Z,96209.23
2023-01-18T23:27:42.672Z,96217.13
2023-01-18T23:30:12.261Z,96220.69
2023-01-18T23:32:41.307Z,96209.09
2023-01-18T23:35:09.755Z,96195.25
2023-01-18T23:37:38.070Z,96194.54
2023-01-18T23:40:26.273Z,96189.84
2023-01-18T23:43:12.874Z,96186.20
2023-01-18T23:45:59.456Z,96200.81
2023-01-18T23:48:46.419Z,96202.38
2023-01-18T23:51:33.349Z,96209.71
2023-01-18T23:54:16.954Z,96223.26
2023-01-18T23:56:46.795Z,96217.48
2023-01-18T23:59:15.097Z,96211.71
